TimeEST,TemperatureF,Dew PointF,Humidity,Sea Level PressureIn,VisibilityMPH,Wind Direction,Wind SpeedMPH,Gust SpeedMPH,PrecipitationIn,Events,Conditions,WindDirDegrees,DateUTC
12:15 AM,61.2,54.7,79,29.42,10.0,South,24.2,34.5,N/A,,Mostly Cloudy,190,2013-01-30 05:15:00
12:35 AM,61.7,54.9,78,29.39,10.0,South,25.3,33.4,N/A,,Overcast,180,2013-01-30 05:35:00
12:55 AM,61.7,54.9,78,29.37,10.0,South,23.0,33.4,N/A,,Mostly Cloudy,180,2013-01-30 05:55:00
1:35 AM,61.9,55.8,80,29.34,7.0,South,28.8,42.6,N/A,,Overcast,190,2013-01-30 06:35:00
1:55 AM,61.7,55.2,79,29.39,5.0,WNW,36.8,44.9,0.08,Rain,Heavy Rain,300,2013-01-30 06:55:00
2:15 AM,54.1,51.1,89,29.40,5.0,NW,23.0,44.9,0.07,Rain,Light Rain,320,2013-01-30 07:15:00
2:35 AM,52.0,50.5,95,29.42,5.0,NW,16.1,25.3,0.10,Rain,Rain,320,2013-01-30 07:35:00
2:55 AM,51.8,50.4,95,29.42,10.0,NW,12.7,19.6,0.13,Rain,Light Rain,320,2013-01-30 07:55:00
3:15 AM,51.8,50.0,94,29.42,5.0,NW,8.1,16.1,0.02,Rain,Light Rain,310,2013-01-30 08:15:00
3:35 AM,51.3,49.3,93,29.44,4.0,WNW,4.6,-,0.06,Rain,Rain,290,2013-01-30 08:35:00
3:55 AM,50.7,49.1,94,29.43,4.0,Calm,Calm,-,0.13,Rain,Rain,0,2013-01-30 08:55:00
4:15 AM,50.0,48.6,95,29.42,5.0,Calm,Calm,-,0.03,Rain,Light Rain,0,2013-01-30 09:15:00
4:35 AM,49.3,48.2,96,29.43,4.0,SW,3.5,-,0.06,Rain,Light Rain,230,2013-01-30 09:35:00
4:55 AM,49.1,48.0,96,29.44,5.0,WSW,5.8,-,0.10,Rain,Light Rain,240,2013-01-30 09:55:00
5:15 AM,49.1,48.2,97,29.43,7.0,SW,4.6,-,0.01,Rain,Light Rain,230,2013-01-30 10:15:00
5:35 AM,48.7,47.8,97,29.40,3.0,SE,4.6,-,0.04,Rain,Rain,140,2013-01-30 10:35:00
5:55 AM,48.4,47.5,97,29.39,7.0,SSE,8.1,-,0.07,Rain,Light Rain,150,2013-01-30 10:55:00
6:15 AM,48.4,47.5,97,29.39,7.0,South,9.2,-,N/A,,Overcast,170,2013-01-30 11:15:00
6:35 AM,48.4,47.5,97,29.37,10.0,SSE,9.2,-,N/A,,Overcast,160,2013-01-30 11:35:00
7:15 AM,48.2,47.3,97,29.36,7.0,SSE,9.2,-,N/A,,Overcast,160,2013-01-30 12:15:00
7:35 AM,48.2,47.3,97,29.36,5.0,SSE,6.9,-,N/A,,Overcast,160,2013-01-30 12:35:00
7:55 AM,48.2,47.3,97,29.31,7.0,SSE,10.4,16.1,N/A,,Overcast,150,2013-01-30 12:55:00
8:15 AM,48.2,47.3,97,29.29,4.0,SSE,11.5,-,N/A,,Mostly Cloudy,150,2013-01-30 13:15:00
8:35 AM,48.4,47.5,97,29.33,7.0,South,13.8,18.4,N/A,,Scattered Clouds,170,2013-01-30 13:35:00
8:55 AM,48.6,47.7,97,29.35,7.0,South,11.5,-,N/A,,Clear,180,2013-01-30 13:55:00
9:15 AM,48.7,47.5,95,29.37,5.0,SSW,9.2,-,N/A,,Clear,200,2013-01-30 14:15:00
9:35 AM,49.1,47.7,95,29.38,10.0,SSW,10.4,-,N/A,,Clear,200,2013-01-30 14:35:00
9:55 AM,49.1,47.5,94,29.37,4.0,South,11.5,-,N/A,,Clear,190,2013-01-30 14:55:00
10:15 AM,49.3,47.5,94,29.36,5.0,SSW,12.7,18.4,N/A,,Clear,200,2013-01-30 15:15:00
10:35 AM,49.8,48.0,94,29.35,7.0,SSW,12.7,-,N/A,,Clear,200,2013-01-30 15:35:00
10:55 AM,50.0,48.2,94,29.33,10.0,SSW,11.5,-,N/A,,Scattered Clouds,210,2013-01-30 15:55:00
11:15 AM,50.7,48.6,92,29.34,7.0,SSW,12.7,-,N/A,,Overcast,200,2013-01-30 16:15:00
11:35 AM,50.7,48.6,92,29.34,7.0,SSW,13.8,-,N/A,Rain,Light Rain,200,2013-01-30 16:35:00
11:55 AM,50.2,48.4,94,29.33,4.0,SSW,15.0,-,N/A,Rain,Light Rain,200,2013-01-30 16:55:00
12:15 PM,50.0,48.6,95,29.31,2.5,SW,11.5,-,N/A,,Overcast,220,2013-01-30 17:15:00
12:35 PM,50.2,49.1,96,29.31,3.0,SW,12.7,-,0.01,Rain,Light Rain,230,2013-01-30 17:35:00
12:55 PM,50.4,48.9,95,29.33,4.0,SW,17.3,21.9,0.01,Rain,Light Rain,230,2013-01-30 17:55:00
1:15 PM,50.4,48.4,93,29.31,3.0,SW,13.8,-,N/A,,Overcast,230,2013-01-30 18:15:00
1:35 PM,50.2,47.8,92,29.29,10.0,SW,13.8,-,N/A,,Overcast,220,2013-01-30 18:35:00
1:55 PM,51.1,47.7,88,29.29,10.0,SW,16.1,20.7,N/A,,Overcast,220,2013-01-30 18:55:00
2:15 PM,52.3,48.0,85,29.27,7.0,SW,18.4,-,N/A,,Overcast,220,2013-01-30 19:15:00
2:35 PM,52.9,47.8,83,29.24,5.0,SW,15.0,-,N/A,,Haze,220,2013-01-30 19:35:00
2:55 PM,53.2,47.3,80,29.24,5.0,SW,19.6,25.3,N/A,,Haze,230,2013-01-30 19:55:00
3:15 PM,53.1,46.9,80,29.25,7.0,SW,18.4,24.2,N/A,,Mostly Cloudy,230,2013-01-30 20:15:00
3:35 PM,50.7,45.5,82,29.25,2.5,West,28.8,40.3,0.02,Rain,Rain,280,2013-01-30 20:35:00
3:55 PM,46.0,42.3,87,29.28,7.0,West,24.2,31.1,0.05,,Overcast,270,2013-01-30 20:55:00
4:15 PM,43.7,39.4,85,29.29,7.0,West,27.6,-,N/A,Rain,Light Rain,260,2013-01-30 21:15:00
4:35 PM,41.9,37.4,84,29.29,7.0,West,25.3,31.1,N/A,Rain,Light Rain,260,2013-01-30 21:35:00
4:55 PM,40.3,35.8,84,29.29,10.0,West,23.0,34.5,N/A,,Overcast,270,2013-01-30 21:55:00
5:15 PM,39.6,35.6,86,29.30,4.0,West,25.3,31.1,N/A,,Overcast,260,2013-01-30 22:15:00
5:35 PM,38.7,35.2,87,29.31,7.0,West,19.6,29.9,N/A,,Overcast,270,2013-01-30 22:35:00
5:55 PM,37.4,33.6,86,29.33,5.0,West,25.3,32.2,N/A,,Overcast,270,2013-01-30 22:55:00
6:15 PM,36.3,32.5,86,29.34,5.0,West,25.3,32.2,N/A,,Overcast,270,2013-01-30 23:15:00
6:35 PM,35.8,32.0,86,29.35,7.0,West,23.0,34.5,N/A,Rain,Light Rain,260,2013-01-30 23:35:00
6:55 PM,34.9,31.8,89,29.37,5.0,West,25.3,29.9,N/A,Snow,Light Snow,260,2013-01-30 23:55:00
7:15 PM,34.5,31.5,89,29.38,5.0,West,25.3,38.0,N/A,,Overcast,260,2013-01-31 00:15:00
7:35 PM,33.4,30.7,90,29.39,7.0,West,26.5,39.1,N/A,Snow,Light Snow,260,2013-01-31 00:35:00
7:55 PM,32.9,30.2,90,29.38,5.0,West,26.5,35.7,N/A,,Overcast,270,2013-01-31 00:55:00
8:15 PM,32.5,29.1,87,29.40,4.0,West,29.9,38.0,N/A,Snow,Light Snow,270,2013-01-31 01:15:00
8:35 PM,32.0,28.6,87,29.41,5.0,West,28.8,35.7,N/A,,Overcast,270,2013-01-31 01:35:00
8:55 PM,32.0,28.8,88,29.41,4.0,West,26.5,33.4,N/A,,Overcast,270,2013-01-31 01:55:00
9:15 PM,31.5,28.8,90,29.42,4.0,West,25.3,35.7,N/A,Snow,Light Snow,270,2013-01-31 02:15:00
9:35 PM,31.1,28.4,90,29.43,7.0,West,28.8,34.5,N/A,,Overcast,270,2013-01-31 02:35:00
9:55 PM,31.1,28.0,88,29.44,3.0,West,29.9,33.4,N/A,Snow,Light Snow,270,2013-01-31 02:55:00
10:15 PM,30.9,27.7,88,29.46,5.0,West,25.3,32.2,N/A,Snow,Light Snow,270,2013-01-31 03:15:00
10:35 PM,30.4,27.3,88,29.48,5.0,West,26.5,35.7,N/A,Snow,Light Snow,280,2013-01-31 03:35:00
10:55 PM,29.8,26.4,87,29.49,3.0,West,33.4,40.3,N/A,Snow,Light Snow,270,2013-01-31 03:55:00
11:15 PM,28.9,25.5,87,29.51,3.0,West,33.4,40.3,N/A,Snow,Light Snow,270,2013-01-31 04:15:00
11:35 PM,28.2,24.6,86,29.52,2.5,WNW,32.2,41.4,N/A,Snow,Light Snow,290,2013-01-31 04:35:00
11:55 PM,28.0,23.7,84,29.54,10.0,West,32.2,40.3,N/A,,Overcast,270,2013-01-31 04:55:00